Terminal Aerodrome Forecast
Issued by NWS

Home | Current Version | Previous Version | Text Only | Print | Product List | Glossary Off
Versions: 1 2 3 4 5 6 7 8 9 10 11 12 13 14 15 16 17 18 19 20 21 22

000
FTUS43 KMPX 292300
TAFAXN
TAF
KAXN 292331Z 3000/3024 06010KT P6SM OVC015
     FM300200 08009KT P6SM BKN025
     FM300400 09007KT P6SM SCT020
     FM300800 11009KT 4SM BR SCT004 OVC015
      TEMPO 3009/3013 1SM BR BKN004
     FM301400 12014KT P6SM SCT008 OVC015
     FM301600 12016G25KT P6SM SCT015 SCT035
     FM302100 13015G23KT 6SM -SHRA BR SCT025 BKN050=

USA.gov is the U.S. government's official web portal to all federal, state and local government web resources and services.